• Join FlightAware (Why Join?)
  • Login
  • US Flag 
10:38AM EST


 

Airport Tracker/Info


-or-


 

Live Flight TrackerFlight Track Log ✈ UAL1259 ✈ 22-Apr-2013 ✈ KORD - KLAX

Flight Track Log - Related Links

Times and Time Zones

All times are in EDT time to prevent confusion due to time zone crossing. See the UAL1259 flight status page for this flight to view local times or setup timezone preferences in your user account.

Time Position Orientation Groundspeed Altitude Reporting Facility
EDT Latitude Longitude Course Direction KTS MPH feet Rate Location/Type
03:43PM 41.9430 -87.9120 217° Southwest 169 194 1,400  Level FlightAware
03:43PM 41.9230 -87.9370 223° Southwest 208 239 2,000 1,380 Climbing FlightAware
03:44PM 41.9040 -87.9620 224° Southwest 231 266 2,700 2,160 Climbing FlightAware
03:44PM 41.8830 -87.9920 227° Southwest 240 276 4,000 2,460 Climbing FlightAware
03:45PM 41.8640 -88.0220 230° Southwest 256 295 5,000 2,520 Climbing FlightAware
03:45PM 41.8560 -88.0440 244° Southwest 260 299 5,700 2,760 Climbing FlightAware
03:45PM 41.8490 -88.0680 249° West 268 308 6,400 2,820 Climbing FlightAware
03:45PM 41.8410 -88.1090 255° West 269 310 7,600 2,580 Climbing FlightAware
03:46PM 41.8580 -88.1490 300° West 290 334 8,800 2,520 Climbing FlightAware
03:47PM 41.9050 -88.2020 320° Northwest 291 335 10,800 2,700 Climbing FlightAware
03:47PM 41.9080 -88.2190 283° West 284 327 11,300 1,200 Climbing FlightAware
03:48PM 41.9090 -88.2900 271° West 283 326 11,800 540 Climbing FlightAware
03:48PM 41.9140 -88.3160 284° West 286 329 11,800 660 Level FlightAware
03:49PM 41.9410 -88.3920 296° West 324 373 12,500 1,500 Climbing FlightAware
03:49PM 41.9680 -88.4680 296° West 340 391 14,000 2,220 Climbing FlightAware
03:50PM 41.9990 -88.5550 296° West 350 403 15,700 2,160 Climbing FlightAware
03:51PM 42.0280 -88.6340 296° West 360 414 17,100 2,160 Climbing FlightAware
03:51PM 42.0570 -88.7150 296° West 361 415 18,600 2,100 Climbing FlightAware
03:52PM 42.0660 -88.8120 277° West 360 414 20,100 1,920 Climbing FlightAware
03:53PM 42.0730 -88.9040 276° West 366 421 21,400 1,680 Climbing FlightAware
03:53PM 42.0810 -89.0080 276° West 378 435 22,500 1,500 Climbing FlightAware
03:54PM 42.0870 -89.1020 275° West 384 442 23,600 1,560 Climbing FlightAware
03:55PM 42.0940 -89.1980 276° West 393 452 24,600 1,380 Climbing FlightAware
03:56PM 42.0960 -89.3130 271° West 399 459 25,600 1,380 Climbing FlightAware
03:56PM 42.0960 -89.4110 270° West 402 463 26,600 1,440 Climbing FlightAware
03:57PM 42.0960 -89.5220 270° West 403 464 27,700 1,320 Climbing FlightAware
03:58PM 42.0970 -89.6220 271° West 404 465 28,500 1,260 Climbing FlightAware
03:58PM 42.0980 -89.7220 271° West 404 465 29,400 1,020 Climbing FlightAware
03:59PM 42.0990 -89.8370 271° West 401 461 30,000 420 Climbing FlightAware
04:00PM 42.0990 -89.9370 270° West 398 458 30,000  Level FlightAware
04:00PM 42.1000 -90.0360 271° West 398 458 30,000  Level FlightAware
04:01PM 42.1000 -90.1430 270° West 398 458 30,000  Level FlightAware
04:02PM 42.1000 -90.2430 270° West 398 458 30,000  Level FlightAware
04:03PM 42.1010 -90.3580 271° West 398 458 30,000  Level FlightAware
04:03PM 42.1010 -90.4550 270° West 398 458 30,000  Level FlightAware
04:04PM 42.1010 -90.5360 270° West 397 457 30,000  Level FlightAware
04:05PM 42.1010 -90.6620 270° West 395 455 30,000  Level FlightAware
04:05PM 42.1010 -90.7590 270° West 394 453 30,000  Level FlightAware
04:06PM 42.1000 -90.8680 269° West 392 451 30,000  Level FlightAware
04:07PM 42.1000 -90.9610 270° West 392 451 30,000  Level FlightAware
04:07PM 42.1000 -91.0760 270° West 391 450 30,000  Level FlightAware
04:08PM 42.0990 -91.1730 269° West 391 450 30,000  Level FlightAware
04:09PM 42.0990 -91.2710 270° West 393 452 30,000  Level FlightAware
04:10PM 42.0980 -91.3740 269° West 393 452 30,000  Level FlightAware
04:10PM 42.0970 -91.4720 269° West 393 452 30,000  Level FlightAware
04:11PM 42.0960 -91.5810 269° West 393 452 30,000  Level FlightAware
04:12PM 42.0950 -91.6800 269° West 394 453 30,000  Level FlightAware
04:12PM 42.0940 -91.7770 269° West 394 453 30,000  Level FlightAware
04:13PM 42.0930 -91.8650 269° West 393 452 30,000  Level FlightAware
04:14PM 42.0920 -91.9880 269° West 391 450 30,000  Level FlightAware
04:14PM 42.0900 -92.0720 268° West 390 449 30,000  Level FlightAware
04:15PM 42.0890 -92.1800 269° West 389 448 30,000  Level FlightAware
04:16PM 42.0860 -92.3590 269° West 388 447 30,000  Level FlightAware
04:17PM 42.0850 -92.4580 269° West 388 447 30,000  Level FlightAware
04:18PM 42.0830 -92.5670 269° West 389 448 30,000  Level FlightAware
04:18PM 42.0800 -92.6620 268° West 389 448 30,000  Level FlightAware
04:19PM 42.0790 -92.7660 269° West 388 447 30,000  Level FlightAware
04:20PM 42.0770 -92.8680 269° West 386 444 30,000  Level FlightAware
04:20PM 42.0750 -92.9600 268° West 385 443 30,000  Level FlightAware
04:21PM 42.0720 -93.0860 268° West 385 443 30,000  Level FlightAware
04:22PM 42.0700 -93.1680 268° West 385 443 30,000  Level FlightAware
04:23PM 42.0680 -93.2490 268° West 385 443 30,000  Level FlightAware
04:24PM 42.0650 -93.3510 268° West 385 443 30,000  Level FlightAware
04:24PM 42.0630 -93.4330 268° West 385 443 30,000  Level FlightAware
04:25PM 42.0610 -93.5140 268° West 385 443 30,000  Level FlightAware
04:26PM 42.0590 -93.5960 268° West 385 443 30,000  Level FlightAware
04:26PM 42.0570 -93.6770 268° West 385 443 30,000  Level FlightAware
04:27PM 42.0540 -93.7590 267° West 385 443 30,000  Level FlightAware
04:28PM 42.0520 -93.8610 269° West 385 443 30,000  Level FlightAware
04:28PM 42.0500 -93.9420 268° West 385 443 30,000  Level FlightAware
04:29PM 42.0480 -94.0240 268° West 385 443 30,000  Level FlightAware
04:30PM 42.0450 -94.1050 267° West 385 443 30,000  Level FlightAware
04:30PM 42.0430 -94.1870 268° West 385 443 30,000 2,160 Level FlightAware
04:31PM 42.0361 -94.3872 268° West 379 436 32,000 1,560 Climbing Minneapolis Center
04:32PM 42.0336 -94.5294 269° West 382 440 32,000  Level Minneapolis Center
04:33PM 42.0278 -94.6722 267° West 385 443 32,000  Level Minneapolis Center
04:34PM 42.0222 -94.8161 267° West 386 444 32,000  Level Minneapolis Center
04:35PM 42.0150 -94.9569 266° West 382 440 32,000  Level Minneapolis Center
04:36PM 42.0089 -95.1275 267° West 383 441 32,000  Level Minneapolis Center
04:37PM 42.0031 -95.2714 267° West 386 444 32,000  Level Minneapolis Center
04:38PM 41.9969 -95.4136 267° West 384 442 32,000  Level Minneapolis Center
04:39PM 41.9906 -95.5586 267° West 388 447 32,000  Level Minneapolis Center
04:40PM 41.9847 -95.7022 267° West 388 447 32,000  Level Minneapolis Center
04:41PM 41.9775 -95.8486 266° West 391 450 32,000  Level Minneapolis Center
04:42PM 41.9706 -95.9933 266° West 391 450 32,000  Level Minneapolis Center
04:43PM 41.9628 -96.1678 267° West 393 452 32,000  Level Minneapolis Center
04:44PM 41.9542 -96.3428 266° West 395 455 32,000  Level Minneapolis Center
04:45PM 41.9461 -96.4892 266° West 395 455 32,000  Level Minneapolis Center
04:46PM 41.9381 -96.6375 266° West 398 458 32,000  Level Minneapolis Center
04:47PM 41.9306 -96.7867 266° West 402 463 32,000  Level Minneapolis Center
04:48PM 41.9228 -96.9353 266° West 401 461 32,000  Level Minneapolis Center
04:49PM 41.9114 -97.1147 265° West 403 464 32,000  Level Minneapolis Center
04:50PM 41.9036 -97.2644 266° West 403 464 32,000  Level Minneapolis Center
04:51PM 41.8939 -97.4133 265° West 402 463 32,000  Level Minneapolis Center
04:52PM 41.8850 -97.5628 265° West 403 464 32,000  Level Minneapolis Center
04:53PM 41.8758 -97.7131 265° West 404 465 32,000  Level Minneapolis Center
04:54PM 41.8672 -97.8628 266° West 404 465 32,000  Level Minneapolis Center
04:55PM 41.8575 -98.0122 265° West 402 463 32,000  Level Minneapolis Center
04:57PM 41.8464 -98.1683 265° West 398 458 32,000  Level Minneapolis Center
04:58PM 41.8367 -98.3139 265° West 395 455 32,000  Level Minneapolis Center
04:59PM 41.8242 -98.4908 265° West 398 458 32,000  Level Minneapolis Center
05:00PM 41.8144 -98.6400 265° West 401 461 32,000  Level Minneapolis Center
05:01PM 41.8031 -98.7908 264° West 406 467 32,000 660 Level Minneapolis Center
05:02PM 41.7925 -98.9403 265° West 406 467 33,400 960 Climbing Minneapolis Center
05:03PM 41.7806 -99.0858 264° West 399 459 34,000 360 Climbing Minneapolis Center
05:03PM 41.7753 -99.1725 265° West 393 452 34,000  Level Denver Center
05:04PM 41.7636 -99.3164 264° West 391 450 34,000  Level Denver Center
05:05PM 41.7522 -99.4619 264° West 393 452 34,000  Level Denver Center
05:06PM 41.7422 -99.5781 263° West 392 451 34,000  Level Denver Center
05:07PM 41.7289 -99.7525 264° West 392 451 34,000  Level Denver Center
05:08PM 41.7164 -99.9108 264° West 387 445 34,000  Level Denver Center
05:09PM 41.7058 -100.0469 264° West 385 443 34,000  Level Denver Center
05:10PM 41.6919 -100.2031 263° West 381 438 34,000  Level Denver Center
05:11PM 41.6822 -100.3139 263° West 379 436 34,000  Level Denver Center
05:12PM 41.6672 -100.4886 264° West 374 430 34,000  Level Denver Center
05:13PM 41.6556 -100.6164 263° West 365 420 34,000  Level Denver Center
05:14PM 41.6444 -100.7439 263° West 363 418 34,000  Level Denver Center
05:20PM 41.5745 -101.5010 263° West 356 410 34,000  Level FlightAware ADS-B
05:21PM 41.5677 -101.5700 263° West 356 410 34,000  Level FlightAware ADS-B
05:21PM 41.5613 -101.6360 263° West 355 409 34,000  Level FlightAware ADS-B
05:22PM 41.5550 -101.7010 263° West 353 406 34,000  Level FlightAware ADS-B
05:22PM 41.5485 -101.7670 263° West 353 406 34,000  Level FlightAware ADS-B
05:23PM 41.5419 -101.8330 262° West 351 404 34,000  Level FlightAware ADS-B
05:23PM 41.5354 -101.8980 262° West 350 403 34,000  Level FlightAware ADS-B
05:24PM 41.5291 -101.9630 263° West 349 402 34,000  Level FlightAware ADS-B
05:24PM 41.5226 -102.0270 262° West 349 402 34,000  Level FlightAware ADS-B
05:25PM 41.5160 -102.0910 262° West 348 400 34,000  Level FlightAware ADS-B
05:25PM 41.5085 -102.1640 262° West 349 402 34,000  Level FlightAware ADS-B
05:26PM 41.5019 -102.2290 262° West 351 404 34,000  Level FlightAware ADS-B
05:26PM 41.4953 -102.2930 262° West 351 404 34,000  Level FlightAware ADS-B
05:27PM 41.4884 -102.3590 262° West 352 405 34,000  Level FlightAware ADS-B
05:27PM 41.4816 -102.4230 262° West 353 406 34,000  Level FlightAware ADS-B
05:28PM 41.4749 -102.4880 262° West 353 406 34,000  Level FlightAware ADS-B
05:28PM 41.4681 -102.5540 262° West 354 407 34,000  Level FlightAware ADS-B
05:29PM 41.4611 -102.6190 262° West 354 407 34,000  Level FlightAware ADS-B
05:29PM 41.4538 -102.6870 262° West 354 407 34,000  Level FlightAware ADS-B
05:30PM 41.4468 -102.7530 262° West 357 411 34,000  Level FlightAware ADS-B
05:30PM 41.4398 -102.8190 262° West 358 412 34,000  Level FlightAware ADS-B
05:31PM 41.4327 -102.8840 262° West 359 413 34,000  Level FlightAware ADS-B
05:31PM 41.4254 -102.9510 262° West 360 414 34,000  Level FlightAware ADS-B
05:32PM 41.4180 -103.0170 262° West 358 412 34,000  Level FlightAware ADS-B
05:32PM 41.4106 -103.0830 262° West 356 410 34,000  Level FlightAware ADS-B
05:33PM 41.4031 -103.1510 262° West 352 405 34,000  Level FlightAware ADS-B
05:33PM 41.3961 -103.2150 262° West 347 399 34,000  Level FlightAware ADS-B
05:34PM 41.3890 -103.2790 262° West 346 398 34,000  Level FlightAware ADS-B
05:34PM 41.3818 -103.3430 261° West 346 398 34,000  Level FlightAware ADS-B
05:35PM 41.3747 -103.4060 261° West 346 398 34,000  Level FlightAware ADS-B
05:35PM 41.3672 -103.4710 261° West 345 397 34,000  Level FlightAware ADS-B
05:36PM 41.3596 -103.5370 261° West 343 395 34,000  Level FlightAware ADS-B
05:36PM 41.3520 -103.6040 261° West 342 394 34,000  Level FlightAware ADS-B
05:37PM 41.3446 -103.6680 261° West 341 392 34,000  Level FlightAware ADS-B
05:37PM 41.3371 -103.7320 261° West 340 391 34,000  Level FlightAware ADS-B
05:38PM 41.3297 -103.7940 261° West 339 390 34,000  Level FlightAware ADS-B
05:38PM 41.3225 -103.8560 261° West 338 389 34,000  Level FlightAware ADS-B
05:39PM 41.3153 -103.9180 261° West 338 389 34,000  Level FlightAware ADS-B
05:39PM 41.3079 -103.9800 261° West 337 388 34,000  Level FlightAware ADS-B
05:40PM 41.3006 -104.0420 261° West 337 388 34,000  Level FlightAware ADS-B
05:40PM 41.2931 -104.1040 261° West 337 388 34,000  Level FlightAware ADS-B
05:41PM 41.2847 -104.1730 261° West 338 389 34,000  Level FlightAware ADS-B
05:42PM 41.2773 -104.2350 261° West 339 390 34,000  Level FlightAware ADS-B
05:42PM 41.2696 -104.2990 261° West 339 390 34,000  Level FlightAware ADS-B
05:43PM 41.2618 -104.3630 261° West 339 390 34,000  Level FlightAware ADS-B
05:43PM 41.2532 -104.4330 261° West 339 390 34,000  Level FlightAware ADS-B
05:44PM 41.2456 -104.4950 261° West 338 389 34,000  Level FlightAware ADS-B
05:44PM 41.2379 -104.5570 261° West 337 388 34,000  Level FlightAware ADS-B
05:45PM 41.2301 -104.6200 261° West 338 389 34,000  Level FlightAware ADS-B
05:45PM 41.2222 -104.6830 261° West 339 390 34,000  Level FlightAware ADS-B
05:46PM 41.2146 -104.7430 260° West 338 389 34,000  Level FlightAware ADS-B
05:46PM 41.2114 -104.7620 257° West 340 391 34,000  Level FlightAware ADS-B
05:46PM 41.2035 -104.7940 252° West 345 397 34,000  Level FlightAware ADS-B
05:47PM 41.1807 -104.8610 246° West 347 399 34,000  Level FlightAware ADS-B
05:47PM 41.1604 -104.9200 245° Southwest 348 400 34,000  Level FlightAware ADS-B
05:48PM 41.1401 -104.9790 245° Southwest 349 402 34,000  Level FlightAware ADS-B
05:48PM 41.1199 -105.0370 245° Southwest 348 400 34,000  Level FlightAware ADS-B
05:49PM 41.0990 -105.0970 245° Southwest 349 402 34,000  Level FlightAware ADS-B
05:49PM 41.0780 -105.1580 245° Southwest 347 399 34,000  Level FlightAware ADS-B
05:50PM 41.0561 -105.2210 245° Southwest 345 397 34,000  Level FlightAware ADS-B
05:50PM 41.0303 -105.2940 245° Southwest 343 395 34,000  Level FlightAware ADS-B
05:51PM 40.9940 -105.3980 245° Southwest 340 391 34,000  Level FlightAware
05:52PM 40.9859 -105.4210 245° Southwest 343 395 34,000  Level FlightAware ADS-B
05:52PM 40.9670 -105.4760 246° West 339 390 34,000  Level FlightAware
05:52PM 40.9490 -105.5260 245° Southwest 343 395 34,000  Level FlightAware ADS-B
05:53PM 40.9188 -105.6120 245° Southwest 340 391 34,000  Level FlightAware ADS-B
05:54PM 40.8810 -105.7190 245° Southwest 337 388 34,000  Level FlightAware
05:55PM 40.8550 -105.7910 244° Southwest 336 387 34,000  Level FlightAware
05:56PM 40.8290 -105.8650 245° Southwest 333 383 34,000  Level FlightAware
05:56PM 40.7990 -105.9500 245° Southwest 332 382 34,000  Level FlightAware
05:57PM 40.7720 -106.0230 244° Southwest 330 380 34,000  Level FlightAware
05:58PM 40.7440 -106.1000 244° Southwest 327 376 34,000  Level FlightAware
05:58PM 40.7180 -106.1750 245° Southwest 335 386 34,000  Level FlightAware
05:59PM 40.6910 -106.2490 244° Southwest 335 386 34,000  Level FlightAware
06:00PM 40.6660 -106.3180 244° Southwest 335 386 34,000  Level FlightAware
06:00PM 40.6380 -106.3940 244° Southwest 335 386 34,000  Level FlightAware
06:01PM 40.6040 -106.4880 245° Southwest 335 386 34,000  Level FlightAware
06:04PM 40.4960 -106.7820 244° Southwest 337 388 34,000  Level FlightAware
06:05PM 40.4650 -106.8670 244° Southwest 337 388 34,000  Level FlightAware
06:06PM 40.4360 -106.9450 244° Southwest 337 388 34,000  Level FlightAware
06:10PM 40.2910 -107.3360 244° Southwest 337 388 34,000  Level FlightAware
06:10PM 40.2680 -107.3980 244° Southwest 337 388 34,000  Level FlightAware
06:11PM 40.2440 -107.4610 243° Southwest 337 388 34,000  Level FlightAware
06:12PM 40.2210 -107.5230 244° Southwest 337 388 34,000  Level FlightAware
06:13PM 40.1920 -107.6010 244° Southwest 337 388 34,000  Level FlightAware
06:13PM 40.1690 -107.6640 244° Southwest 337 388 34,000  Level FlightAware
06:14PM 40.1460 -107.7260 244° Southwest 337 388 34,000  Level FlightAware
06:14PM 40.0678 -107.9272 244° Southwest 345 397 34,000  Level Salt Lake Center
06:14PM 40.0508 -107.9611 237° Southwest 345 397 34,000  Level Denver Center
06:16PM 39.9978 -108.0622 236° Southwest 352 405 34,000  Level Denver Center
06:17PM 39.9372 -108.1814 236° Southwest 353 406 34,000  Level Denver Center
06:18PM 39.8858 -108.2814 236° Southwest 348 400 34,000  Level Denver Center
06:19PM 39.8353 -108.3814 237° Southwest 335 386 34,000  Level Denver Center
06:20PM 39.7739 -108.4989 236° Southwest 350 403 34,000  Level Denver Center
06:21PM 39.7217 -108.6003 236° Southwest 352 405 34,000  Level Denver Center
06:22PM 39.6603 -108.7175 236° Southwest 352 405 34,000  Level Denver Center
06:23PM 39.6028 -108.8294 236° Southwest 358 412 34,000  Level Denver Center
06:24PM 39.5497 -108.9306 236° Southwest 355 409 34,000  Level Denver Center
06:25PM 39.4953 -109.0333 236° Southwest 360 414 34,000  Level Denver Center
06:26PM 39.4311 -109.1556 236° Southwest 366 421 34,000  Level Denver Center
06:27PM 39.3756 -109.2606 236° Southwest 370 426 34,000  Level Denver Center
06:28PM 39.3294 -109.3467 235° Southwest 366 421 34,000  Level Salt Lake Center
06:29PM 39.2744 -109.4514 236° Southwest 367 422 34,000  Level Salt Lake Center
06:30PM 39.2111 -109.5719 236° Southwest 364 419 34,000  Level Salt Lake Center
06:31PM 39.1558 -109.6761 236° Southwest 367 422 34,000  Level Salt Lake Center
06:31PM 39.1372 -109.7097 234° Southwest 367 422 34,000  Level Denver Center
06:32PM 39.0828 -109.8136 236° Southwest 364 419 34,000  Level Denver Center
06:33PM 39.0350 -109.9014 235° Southwest 371 427 34,000  Level Salt Lake Center
06:34PM 38.9794 -110.0042 235° Southwest 366 421 34,000  Level Salt Lake Center
06:35PM 38.9142 -110.1256 235° Southwest 368 423 34,000  Level Salt Lake Center
06:36PM 38.8569 -110.2306 235° Southwest 374 430 34,000  Level Salt Lake Center
06:36PM 38.8378 -110.2656 235° Southwest 374 430 34,000  Level Denver Center
06:37PM 38.7794 -110.3697 234° Southwest 375 432 34,000  Level Denver Center
06:38PM 38.7333 -110.4578 236° Southwest 374 430 34,000  Level Salt Lake Center
06:39PM 38.6656 -110.5803 235° Southwest 377 434 34,000  Level Salt Lake Center
06:40PM 38.6072 -110.6861 235° Southwest 380 437 34,000  Level Salt Lake Center
06:41PM 38.5494 -110.7917 235° Southwest 379 436 34,000  Level Salt Lake Center
06:42PM 38.4800 -110.9158 234° Southwest 383 441 34,000  Level Salt Lake Center
06:43PM 38.4133 -111.0350 234° Southwest 390 449 34,000  Level Salt Lake Center
06:44PM 38.3511 -111.1442 234° Southwest 384 442 34,000  Level Salt Lake Center
06:45PM 38.2892 -111.2561 235° Southwest 384 442 34,000  Level Salt Lake Center
06:46PM 38.1994 -111.4136 234° Southwest 395 455 34,000  Level Denver Center
06:47PM 38.1614 -111.4822 235° Southwest 394 453 34,000  Level Salt Lake Center
06:48PM 38.0975 -111.5964 235° Southwest 397 457 34,000  Level Salt Lake Center
06:49PM 38.0300 -111.7075 232° Southwest 397 457 34,000  Level Salt Lake Center
06:50PM 37.9661 -111.8203 234° Southwest 396 456 34,000  Level Salt Lake Center
06:51PM 37.9022 -111.9333 234° Southwest 395 455 34,000  Level Salt Lake Center
06:52PM 37.8269 -112.0650 234° Southwest 387 445 34,000  Level Salt Lake Center
06:53PM 37.7611 -112.1789 234° Southwest 400 460 34,000  Level Salt Lake Center
06:54PM 37.6950 -112.2933 234° Southwest 402 463 34,000  Level Salt Lake Center
07:00PM 37.2720 -112.9530 234° Southwest 403 464 34,000  Level FlightAware
07:01PM 37.2240 -113.0240 230° Southwest 403 464 34,000  Level FlightAware
07:02PM 37.1710 -113.1090 232° Southwest 405 466 34,000  Level FlightAware
07:02PM 37.1190 -113.1890 231° Southwest 405 466 34,000  Level FlightAware
07:03PM 37.0700 -113.2630 230° Southwest 406 467 34,000  Level FlightAware
07:04PM 37.0160 -113.3450 231° Southwest 404 465 34,000  Level FlightAware
07:04PM 36.9690 -113.4170 231° Southwest 403 464 34,000  Level FlightAware
07:05PM 36.9210 -113.4900 231° Southwest 404 465 34,000  Level FlightAware
07:06PM 36.8690 -113.5680 230° Southwest 407 468 34,000  Level FlightAware
07:06PM 36.8200 -113.6410 230° Southwest 408 470 34,000  Level FlightAware
07:07PM 36.7660 -113.7240 231° Southwest 409 471 34,000  Level FlightAware
07:08PM 36.7160 -113.7980 230° Southwest 410 472 34,000  Level FlightAware
07:09PM 36.6680 -113.8710 231° Southwest 413 475 34,000  Level FlightAware
07:09PM 36.6150 -113.9510 230° Southwest 413 475 34,000  Level FlightAware
07:10PM 36.5650 -114.0240 230° Southwest 411 473 34,000  Level FlightAware
07:11PM 36.5110 -114.1060 231° Southwest 414 476 34,000  Level FlightAware
07:11PM 36.4610 -114.1790 230° Southwest 413 475 34,000  Level FlightAware
07:12PM 36.4120 -114.2530 231° Southwest 414 476 34,000  Level FlightAware
07:13PM 36.3560 -114.3360 230° Southwest 415 478 34,000  Level FlightAware
07:13PM 36.3060 -114.4100 230° Southwest 418 481 34,000  Level FlightAware
07:14PM 36.2560 -114.4830 230° Southwest 423 487 34,000  Level FlightAware
07:15PM 36.2000 -114.5640 229° Southwest 425 489 34,000  Level FlightAware
07:16PM 36.1490 -114.6390 230° Southwest 426 490 34,000  Level FlightAware
07:16PM 36.0910 -114.7250 230° Southwest 429 494 34,000  Level FlightAware
07:17PM 36.0390 -114.8000 229° Southwest 429 494 34,000  Level FlightAware
07:18PM 35.9880 -114.8750 230° Southwest 430 495 34,000  Level FlightAware
07:18PM 35.9280 -114.9560 228° Southwest 429 494 34,000  Level FlightAware
07:19PM 35.8760 -115.0260 227° Southwest 428 493 34,000  Level FlightAware
07:20PM 35.8150 -115.1100 228° Southwest 426 490 34,000  Level FlightAware
07:20PM 35.7630 -115.1810 228° Southwest 426 490 34,000  Level FlightAware
07:21PM 35.7080 -115.2540 227° Southwest 426 490 34,000  Level FlightAware
07:22PM 35.6510 -115.3320 228° Southwest 428 493 34,000  Level FlightAware
07:23PM 35.5970 -115.4040 227° Southwest 428 493 34,000  Level FlightAware
07:23PM 35.5360 -115.4860 228° Southwest 429 494 34,000  Level FlightAware
07:24PM 35.4820 -115.5590 228° Southwest 428 493 34,000  Level FlightAware
07:25PM 35.4300 -115.6270 227° Southwest 428 493 34,000  Level FlightAware
07:25PM 35.3680 -115.7110 228° Southwest 428 493 34,000  Level FlightAware
07:26PM 35.3150 -115.7810 227° Southwest 426 490 34,000  Level FlightAware
07:27PM 35.2590 -115.8560 228° Southwest 423 487 34,000  Level FlightAware
07:27PM 35.2040 -115.9290 227° Southwest 422 486 34,000  Level FlightAware
07:28PM 35.1420 -116.0100 227° Southwest 422 486 34,000  Level FlightAware
07:29PM 35.0730 -116.0950 225° Southwest 423 487 34,000  Level FlightAware
07:30PM 35.0250 -116.1510 224° Southwest 423 487 34,000  Level FlightAware
07:30PM 34.9480 -116.2230 217° Southwest 425 489 34,000  Level FlightAware
07:31PM 34.8800 -116.2960 221° Southwest 425 489 34,000  Level FlightAware
07:32PM 34.8270 -116.3520 221° Southwest 424 488 34,000 -360 Level FlightAware
07:33PM 34.7530 -116.4310 221° Southwest 425 489 33,500 -780 Descending FlightAware
07:33PM 34.6950 -116.4930 221° Southwest 425 489 32,900 -1,080 Descending FlightAware
07:34PM 34.6340 -116.5570 221° Southwest 430 495 32,100 -1,740 Descending FlightAware
07:35PM 34.5690 -116.6260 221° Southwest 419 482 30,500 -2,220 Descending FlightAware
07:35PM 34.5100 -116.6880 221° Southwest 411 473 29,000 -2,100 Descending FlightAware
07:36PM 34.4560 -116.7450 221° Southwest 404 465 27,700 -2,160 Descending FlightAware
07:37PM 34.3900 -116.8140 221° Southwest 396 456 26,000 -2,100 Descending FlightAware
07:38PM 34.3330 -116.8740 221° Southwest 389 448 24,600 -2,100 Descending FlightAware
07:38PM 34.2760 -116.9330 221° Southwest 381 438 23,100 -2,040 Descending FlightAware
07:39PM 34.2240 -116.9870 221° Southwest 374 430 21,900 -1,980 Descending FlightAware
07:40PM 34.1630 -117.0510 221° Southwest 367 422 20,300 -2,100 Descending FlightAware
07:40PM 34.1130 -117.1060 222° Southwest 358 412 19,000 -1,800 Descending FlightAware
07:41PM 34.0770 -117.1780 239° Southwest 343 395 17,800 -1,800 Descending FlightAware
07:42PM 34.0510 -117.2450 245° Southwest 336 387 16,500 -1,920 Descending FlightAware
07:42PM 34.0410 -117.3210 261° West 326 375 15,300 -1,860 Descending FlightAware
07:43PM 34.0340 -117.4020 264° West 320 368 13,900 -1,860 Descending FlightAware
07:44PM 34.0270 -117.4720 263° West 315 362 12,700 -1,800 Descending FlightAware
07:45PM 34.0200 -117.5480 264° West 312 359 11,400 -1,680 Descending FlightAware
07:45PM 34.0130 -117.6180 263° West 305 351 10,400 -1,080 Descending FlightAware
07:46PM 34.0070 -117.6820 264° West 292 336 10,000 -900 Descending FlightAware
07:46PM 34.0020 -117.7300 263° West 283 326 9,400 -1,320 Descending FlightAware
07:47PM 33.9990 -117.7700 265° West 271 312 8,800 -1,320 Descending FlightAware
07:47PM 33.9950 -117.8130 264° West 258 297 8,200 -1,200 Descending FlightAware
07:48PM 33.9900 -117.8550 262° West 252 290 7,600 -1,200 Descending FlightAware
07:48PM 33.9870 -117.8880 264° West 252 290 7,100 -1,140 Descending FlightAware
07:49PM 33.9830 -117.9300 263° West 245 282 6,600 -900 Descending FlightAware
07:49PM 33.9790 -117.9650 262° West 237 273 6,300 -900 Descending FlightAware
07:50PM 33.9750 -118.0040 263° West 233 268 5,800 -900 Descending FlightAware
07:50PM 33.9720 -118.0340 263° West 228 262 5,500 -780 Descending FlightAware
07:51PM 33.9690 -118.0720 265° West 229 264 5,100 -960 Descending FlightAware
07:51PM 33.9670 -118.0920 263° West 227 261 4,800 -1,200 Descending FlightAware
07:51PM 33.9630 -118.1310 263° West 229 264 4,200 -1,140 Descending FlightAware
07:52PM 33.9600 -118.1600 263° West 219 252 3,800 -1,080 Descending FlightAware
07:52PM 33.9570 -118.1910 263° West 216 249 3,300 -1,200 Descending FlightAware
07:53PM 33.9530 -118.2260 262° West 210 242 2,700 -1,200 Descending FlightAware
07:53PM 33.9500 -118.2590 264° West 190 219 2,100 -1,080 Descending FlightAware
07:53PM 33.9480 -118.2780 263° West 185 213 1,800 -660 Descending FlightAware
07:54PM 33.9460 -118.3010 264° West 172 198 1,500 -480 Descending FlightAware
07:55PM 33.9420 -118.3300 261° West 167 192 1,300 -900 Descending FlightAware
07:55PM 33.9410 -118.3490 266° West 153 176 700 -1,140 Descending FlightAware
07:55PM 33.9380 -118.3740 262° West 148 170 300 -480 Descending FlightAware
07:56PM 33.9360 -118.3990 264° West 150 173 200 -180 Descending FlightAware